IBE152 LEBL-ENZV
Flight info
| Callsign | IBE152 |
|---|---|
| Flight time | N/A |
| Altitude | 30000 |
| Route | DALIN DCT PIVUS DCT DIBER/N0458F340 DCT SECON DCT ODIXU DCT MAXIR DCT LUSOL DCT BODRU DCT OKTET DCT IRMAR DCT KINES DCT VANAS DCT MOBLO DCT UBIMA DCT GILIR DCT PENDU DCT IXILU DCT GIVOR DCT SORAL DCT IBERA DCT ARCKY/N0454F350 DCT IBESA DCT DOROR/N0455F360 DCT MITSI DCT RIVEX |
| Aircraft | A320/M-SDE3FGHIRWY/LB1 |
Departure
| Time | 2026-05-04 16:00 |
|---|---|
| Airport | Josep Tarradellas Barcelona-El Prat Airport (LEBL) |
Arrival
| Time | N/A |
|---|---|
| Airport | Stavanger Airport, Sola (ENZV) |
| Time | Latitude | Longitude | Altitude | Speed | Heading |
|---|---|---|---|---|---|
| 2026-05-04 15:14 | 41.29013 | 2.08001 | 19 ft | 0 kts | 336° |
| 2026-05-04 15:44 | 41.29012 | 2.08002 | 19 ft | 2 kts | 336° |
| 2026-05-04 15:44 | 41.28990 | 2.08015 | 20 ft | 4 kts | 336° |
| 2026-05-04 15:44 | 41.28965 | 2.08027 | 20 ft | 4 kts | 353° |
| 2026-05-04 15:44 | 41.28939 | 2.08025 | 19 ft | 4 kts | 37° |
| 2026-05-04 15:45 | 41.28930 | 2.08010 | 21 ft | 1 kts | 65° |
| 2026-05-04 15:45 | 41.28929 | 2.08008 | 21 ft | 0 kts | 65° |
| 2026-05-04 15:49 | 41.28940 | 2.08041 | 22 ft | 9 kts | 65° |
| 2026-05-04 15:50 | 41.28959 | 2.08136 | 19 ft | 8 kts | 124° |
| 2026-05-04 15:50 | 41.28938 | 2.08142 | 19 ft | 1 kts | 173° |
| 2026-05-04 15:50 | 41.28934 | 2.08143 | 19 ft | 4 kts | 173° |
| 2026-05-04 15:50 | 41.28865 | 2.08171 | 20 ft | 11 kts | 156° |
| 2026-05-04 15:51 | 41.28805 | 2.08206 | 16 ft | 10 kts | 156° |
| 2026-05-04 15:51 | 41.28754 | 2.08232 | 15 ft | 8 kts | 172° |
| 2026-05-04 15:51 | 41.28712 | 2.08279 | 16 ft | 11 kts | 87° |
| 2026-05-04 15:51 | 41.28749 | 2.08400 | 17 ft | 17 kts | 65° |
| 2026-05-04 15:52 | 41.28789 | 2.08518 | 17 ft | 11 kts | 65° |
| 2026-05-04 15:52 | 41.28834 | 2.08642 | 17 ft | 19 kts | 65° |
| 2026-05-04 15:52 | 41.28895 | 2.08821 | 16 ft | 21 kts | 62° |
| 2026-05-04 15:52 | 41.28951 | 2.08983 | 18 ft | 11 kts | 68° |
| 2026-05-04 15:53 | 41.28974 | 2.09053 | 16 ft | 7 kts | 66° |
| 2026-05-04 15:53 | 41.28996 | 2.09122 | 17 ft | 13 kts | 66° |
| 2026-05-04 15:53 | 41.29047 | 2.09271 | 16 ft | 18 kts | 65° |
| 2026-05-04 15:53 | 41.29104 | 2.09434 | 17 ft | 22 kts | 64° |
| 2026-05-04 15:54 | 41.29177 | 2.09644 | 16 ft | 27 kts | 66° |
| 2026-05-04 15:54 | 41.29238 | 2.09827 | 18 ft | 16 kts | 66° |
| 2026-05-04 15:54 | 41.29274 | 2.09929 | 17 ft | 9 kts | 65° |
| 2026-05-04 15:54 | 41.29278 | 2.10004 | 16 ft | 9 kts | 108° |
| 2026-05-04 15:55 | 41.29258 | 2.10077 | 15 ft | 0 kts | 111° |
| 2026-05-04 15:57 | 41.29257 | 2.10079 | 15 ft | 2 kts | 111° |
| 2026-05-04 15:57 | 41.29237 | 2.10149 | 15 ft | 13 kts | 111° |
| 2026-05-04 15:57 | 41.29240 | 2.10277 | 14 ft | 12 kts | 125° |
| 2026-05-04 15:58 | 41.29196 | 2.10256 | 16 ft | 4 kts | 243° |
| 2026-05-04 15:58 | 41.29193 | 2.10247 | 16 ft | 0 kts | 245° |
| 2026-05-04 15:59 | 41.29183 | 2.10218 | 18 ft | 23 kts | 245° |
| 2026-05-04 16:00 | 41.29012 | 2.09718 | 21 ft | 92 kts | 246° |
| 2026-05-04 16:00 | 41.28665 | 2.08705 | 23 ft | 146 kts | 245° |
| 2026-05-04 16:00 | 41.28235 | 2.07457 | 547 ft | 142 kts | 243° |
| 2026-05-04 16:00 | 41.27600 | 2.06407 | 956 ft | 152 kts | 209° |
| 2026-05-04 16:01 | 41.26558 | 2.06104 | 1493 ft | 157 kts | 182° |
| 2026-05-04 16:01 | 41.25468 | 2.06088 | 2267 ft | 157 kts | 181° |
| 2026-05-04 16:01 | 41.24378 | 2.06079 | 3011 ft | 156 kts | 182° |
| 2026-05-04 16:01 | 41.23272 | 2.06047 | 3462 ft | 166 kts | 183° |
| 2026-05-04 16:02 | 41.22332 | 2.06001 | 3581 ft | 181 kts | 184° |
| 2026-05-04 16:02 | 41.21029 | 2.05915 | 3722 ft | 198 kts | 184° |
| 2026-05-04 16:02 | 41.18089 | 2.05660 | 4516 ft | 216 kts | 185° |
| 2026-05-04 16:03 | 41.16572 | 2.05542 | 5155 ft | 226 kts | 184° |
| 2026-05-04 16:03 | 41.14953 | 2.05473 | 5971 ft | 236 kts | 183° |
| 2026-05-04 16:03 | 41.13291 | 2.05417 | 7006 ft | 242 kts | 185° |
| 2026-05-04 16:03 | 41.11605 | 2.05359 | 8106 ft | 243 kts | 185° |
| 2026-05-04 16:04 | 41.09913 | 2.05295 | 9172 ft | 243 kts | 185° |
| 2026-05-04 16:04 | 41.06505 | 2.05151 | 10793 ft | 248 kts | 186° |
| 2026-05-04 16:04 | 41.04772 | 2.05072 | 11404 ft | 249 kts | 186° |
| 2026-05-04 16:05 | 41.03028 | 2.04993 | 12003 ft | 252 kts | 186° |
| 2026-05-04 16:05 | 41.01275 | 2.05205 | 12584 ft | 261 kts | 167° |
| 2026-05-04 16:05 | 40.98502 | 2.08576 | 13255 ft | 308 kts | 115° |
| 2026-05-04 16:06 | 40.97773 | 2.11351 | 13383 ft | 329 kts | 113° |
| 2026-05-04 16:06 | 40.95635 | 2.19681 | 13769 ft | 387 kts | 112° |
| 2026-05-04 16:07 | 40.94921 | 2.24487 | 13920 ft | 415 kts | 92° |
| 2026-05-04 16:07 | 40.98894 | 2.34823 | 14973 ft | 442 kts | 45° |
| 2026-05-04 16:08 | 41.01060 | 2.37733 | 15447 ft | 445 kts | 45° |
| 2026-05-04 16:08 | 41.07689 | 2.46527 | 16805 ft | 454 kts | 44° |
| 2026-05-04 16:09 | 41.12163 | 2.52500 | 17680 ft | 459 kts | 45° |
| 2026-05-04 16:09 | 41.16685 | 2.58573 | 18479 ft | 465 kts | 45° |
| 2026-05-04 16:10 | 41.21184 | 2.64803 | 19141 ft | 470 kts | 47° |
| 2026-05-04 16:11 | 41.27742 | 2.74551 | 20096 ft | 478 kts | 48° |
| 2026-05-04 16:11 | 41.29945 | 2.77860 | 20403 ft | 480 kts | 48° |
| 2026-05-04 16:12 | 41.36681 | 2.87849 | 21272 ft | 487 kts | 47° |
| 2026-05-04 16:12 | 41.43503 | 2.97910 | 22093 ft | 493 kts | 47° |
| 2026-05-04 16:13 | 41.48129 | 3.04781 | 22620 ft | 497 kts | 47° |
| 2026-05-04 16:13 | 41.52754 | 3.11678 | 23134 ft | 500 kts | 47° |
| 2026-05-04 16:14 | 41.57417 | 3.18634 | 23578 ft | 504 kts | 47° |
| 2026-05-04 16:14 | 41.62103 | 3.25630 | 23975 ft | 507 kts | 47° |
| 2026-05-04 16:15 | 41.69164 | 3.36227 | 24525 ft | 510 kts | 48° |
| 2026-05-04 16:16 | 41.73859 | 3.43292 | 24872 ft | 512 kts | 48° |
| 2026-05-04 16:16 | 41.80957 | 3.53994 | 25483 ft | 512 kts | 48° |
| 2026-05-04 16:17 | 41.85672 | 3.61136 | 25884 ft | 512 kts | 48° |
| 2026-05-04 16:18 | 41.92776 | 3.71929 | 26250 ft | 516 kts | 48° |
| 2026-05-04 16:18 | 41.95157 | 3.75544 | 26373 ft | 516 kts | 48° |
| 2026-05-04 16:19 | 42.02286 | 3.86417 | 26745 ft | 517 kts | 49° |
| 2026-05-04 16:19 | 42.07040 | 3.93684 | 26998 ft | 517 kts | 49° |
| 2026-05-04 16:20 | 42.14158 | 4.04606 | 27383 ft | 517 kts | 49° |
| 2026-05-04 16:20 | 42.18893 | 4.11891 | 27642 ft | 516 kts | 49° |
| 2026-05-04 16:21 | 42.25978 | 4.22843 | 28033 ft | 516 kts | 49° |
| 2026-05-04 16:22 | 42.30695 | 4.30151 | 28302 ft | 516 kts | 49° |
| 2026-05-04 16:22 | 42.37753 | 4.41124 | 28698 ft | 515 kts | 49° |
| 2026-05-04 16:23 | 42.44788 | 4.52101 | 29108 ft | 514 kts | 50° |
| 2026-05-04 16:24 | 42.53349 | 4.65496 | 29615 ft | 513 kts | 50° |
| 2026-05-04 16:25 | 42.58291 | 4.72430 | 29896 ft | 512 kts | 34° |
| 2026-05-04 16:26 | 42.71715 | 4.77174 | 30415 ft | 503 kts | 3° |
| 2026-05-04 16:26 | 42.82201 | 4.78785 | 30786 ft | 503 kts | 3° |
| 2026-05-04 16:27 | 42.89114 | 4.79875 | 31038 ft | 503 kts | 2° |